Time;durP1;ratioP1;P1;durP2;ratioP2;P2;SDS_P1;SDS_P2;PMS_P1;PMS_P2;Temp;Humidity;BMP_temperature;BMP_pressure;BME280_temperature;BME280_humidity;BME280_pressure;Samples;Min_cycle;Max_cycle;Signal;HPM_P1;HPM_P2
2023/10/23 00:04:50;;;;;;;15.40;10.90;;;;;;;10.96;98.96;99555.36;217551;1261;140394;-67
2023/10/23 00:09:54;;;;;;;13.20;11.60;;;;;;;10.91;98.87;99559.91;218743;1257;141787;-68
2023/10/23 00:14:58;;;;;;;13.40;10.50;;;;;;;10.91;99.34;99557.29;219209;1260;141980;-68
2023/10/23 00:20:03;;;;;;;10.30;9.20;;;;;;;10.94;99.33;99557.67;220088;1259;142045;-69
2023/10/23 00:25:08;;;;;;;12.90;10.40;;;;;;;10.94;99.02;99558.73;219462;1260;140141;-68
2023/10/23 00:30:13;;;;;;;14.10;11.40;;;;;;;10.94;99.03;99564.23;218967;1261;140506;-68
2023/10/23 00:35:16;;;;;;;16.10;10.90;;;;;;;10.98;99.39;99561.69;218780;1261;140062;-68
2023/10/23 00:40:21;;;;;;;20.20;13.30;;;;;;;11.01;99.33;99565.73;219252;1259;141098;-67
2023/10/23 00:45:26;;;;;;;14.10;10.40;;;;;;;11.00;98.85;99572.65;218964;1260;141915;-68
2023/10/23 00:50:31;;;;;;;14.10;11.90;;;;;;;10.99;99.13;99573.44;217878;1258;140651;-67
2023/10/23 00:55:37;;;;;;;12.40;8.80;;;;;;;10.99;99.28;99577.54;218329;1259;141331;-67
2023/10/23 01:00:44;;;;;;;12.60;9.00;;;;;;;10.97;99.27;99576.35;218629;1260;140700;-67
2023/10/23 01:05:49;;;;;;;9.40;8.50;;;;;;;10.94;99.20;99579.81;219220;1259;141188;-67
2023/10/23 01:10:55;;;;;;;11.10;8.90;;;;;;;10.93;99.17;99579.48;218812;1259;140845;-67
2023/10/23 01:16:00;;;;;;;9.50;8.70;;;;;;;10.96;99.39;99582.08;217595;1258;140334;-67
2023/10/23 01:21:04;;;;;;;9.40;8.50;;;;;;;10.97;99.35;99581.95;218285;1259;141711;-69
2023/10/23 01:26:09;;;;;;;9.40;8.50;;;;;;;10.98;99.47;99581.27;217675;1262;139959;-70
2023/10/23 01:31:14;;;;;;;8.90;6.80;;;;;;;10.95;99.57;99583.93;217665;1260;140852;-68
2023/10/23 01:36:19;;;;;;;12.50;8.10;;;;;;;10.93;99.34;99588.59;217532;1262;139821;-69
2023/10/23 01:41:24;;;;;;;10.80;8.10;;;;;;;10.90;99.55;99591.64;217493;1258;140240;-69
2023/10/23 01:46:30;;;;;;;9.70;7.80;;;;;;;10.90;99.76;99594.77;218246;1262;140522;-68
2023/10/23 01:51:35;;;;;;;10.50;7.50;;;;;;;10.89;99.66;99593.64;217414;1262;140063;-70
2023/10/23 01:56:40;;;;;;;8.50;7.60;;;;;;;10.88;99.59;99589.98;218366;1259;140335;-70
2023/10/23 02:01:45;;;;;;;10.80;8.50;;;;;;;10.87;99.56;99591.56;218355;1262;139781;-70
2023/10/23 02:06:50;;;;;;;11.60;7.80;;;;;;;10.89;99.68;99598.11;217479;1260;141182;-68
2023/10/23 02:11:54;;;;;;;11.70;7.80;;;;;;;10.89;99.67;99597.73;220068;1258;142212;-69
2023/10/23 02:16:58;;;;;;;8.40;7.40;;;;;;;10.88;99.44;99595.10;217488;1259;385955;-71
2023/10/23 02:22:02;;;;;;;8.80;7.90;;;;;;;10.88;99.48;99594.94;218730;1257;140697;-68
2023/10/23 02:27:06;;;;;;;9.20;6.80;;;;;;;10.88;99.40;99594.73;219856;1259;140438;-70
2023/10/23 02:32:10;;;;;;;13.30;7.10;;;;;;;10.86;99.46;99596.45;218681;1259;140308;-69
2023/10/23 02:37:14;;;;;;;10.40;7.90;;;;;;;10.85;99.31;99603.86;219978;1260;140322;-69
2023/10/23 02:42:17;;;;;;;8.40;6.90;;;;;;;10.87;99.34;99599.14;219917;1258;140770;-69
2023/10/23 02:47:21;;;;;;;8.00;6.60;;;;;;;10.89;99.34;99599.13;220031;1258;140565;-69
2023/10/23 02:52:26;;;;;;;8.70;6.50;;;;;;;10.91;99.34;99596.44;217885;1260;139831;-69
2023/10/23 02:57:31;;;;;;;10.10;7.20;;;;;;;10.91;99.23;99596.43;218656;1260;140532;-68
2023/10/23 03:02:36;;;;;;;15.00;7.80;;;;;;;10.90;99.32;99595.79;218150;1260;140875;-68
2023/10/23 03:07:41;;;;;;;11.20;7.20;;;;;;;10.85;98.82;99596.60;219465;1257;140719;-69
2023/10/23 03:12:45;;;;;;;14.60;7.40;;;;;;;10.79;98.64;99593.86;217960;1257;139915;-69
2023/10/23 03:17:48;;;;;;;7.90;7.10;;;;;;;10.69;98.39;99594.08;218177;1261;140175;-69
2023/10/23 03:22:53;;;;;;;11.90;7.90;;;;;;;10.59;98.19;99596.28;217509;1259;139839;-67
2023/10/23 03:27:59;;;;;;;11.00;7.40;;;;;;;10.51;98.24;99596.48;217544;1260;139963;-69
2023/10/23 03:33:03;;;;;;;8.50;6.10;;;;;;;10.40;98.16;99593.52;217425;1259;235815;-68
2023/10/23 03:38:08;;;;;;;8.00;5.80;;;;;;;10.28;97.58;99598.14;218673;1262;161548;-68
2023/10/23 03:43:12;;;;;;;7.00;5.70;;;;;;;10.07;96.70;99606.77;218305;1262;140090;-68
2023/10/23 03:48:16;;;;;;;12.70;5.50;;;;;;;9.92;96.67;99613.27;217886;1262;140220;-68
2023/10/23 03:53:20;;;;;;;7.70;6.90;;;;;;;9.80;96.97;99624.30;217468;1261;141398;-71
2023/10/23 03:58:25;;;;;;;8.30;5.50;;;;;;;9.74;97.24;99631.52;218471;1261;139793;-71
2023/10/23 04:03:29;;;;;;;9.10;7.00;;;;;;;9.69;97.72;99640.89;218493;1262;140314;-70
2023/10/23 04:08:34;;;;;;;10.00;5.90;;;;;;;9.67;97.74;99653.77;217961;1259;139696;-71
2023/10/23 04:13:38;;;;;;;7.60;6.00;;;;;;;9.63;97.70;99649.34;219468;1260;140118;-70
2023/10/23 04:18:42;;;;;;;8.30;6.10;;;;;;;9.60;97.94;99649.07;218328;1257;139813;-68
2023/10/23 04:23:46;;;;;;;7.00;6.10;;;;;;;9.58;97.97;99651.63;219673;1259;140393;-69
2023/10/23 04:28:50;;;;;;;6.10;5.60;;;;;;;9.59;98.42;99648.19;220148;1258;139961;-71
2023/10/23 04:33:54;;;;;;;7.80;6.20;;;;;;;9.58;98.38;99647.16;219710;1257;140047;-70
2023/10/23 04:38:59;;;;;;;7.40;6.20;;;;;;;9.61;98.58;99659.25;219990;1261;140495;-71
2023/10/23 04:44:03;;;;;;;7.10;5.90;;;;;;;9.62;98.59;99652.27;219482;1258;140246;-69
2023/10/23 04:49:08;;;;;;;7.70;5.70;;;;;;;9.65;98.80;99652.18;219200;1257;140020;-69
2023/10/23 04:54:12;;;;;;;11.80;5.00;;;;;;;9.68;98.87;99647.34;219423;1257;141008;-70
2023/10/23 04:59:16;;;;;;;6.00;5.40;;;;;;;9.71;99.29;99656.33;218056;1261;140466;-70
2023/10/23 05:04:20;;;;;;;7.40;4.60;;;;;;;9.76;99.34;99664.48;218241;1261;141511;-69
2023/10/23 05:09:25;;;;;;;7.60;5.80;;;;;;;9.76;99.16;99679.92;217662;1261;139840;-69
2023/10/23 05:14:30;;;;;;;7.80;5.90;;;;;;;9.73;98.98;99691.33;218352;1262;141264;-69
2023/10/23 05:19:34;;;;;;;6.20;5.60;;;;;;;9.68;99.03;99694.27;217482;1262;140734;-69
2023/10/23 05:24:43;;;;;;;7.10;5.60;;;;;;;9.67;99.07;99709.59;217775;1262;140216;-69
2023/10/23 05:29:50;;;;;;;5.10;4.60;;;;;;;9.63;99.02;99713.75;218390;1262;224269;-69
2023/10/23 05:34:59;;;;;;;8.60;6.60;;;;;;;9.59;99.00;99720.52;217984;1260;139588;-70
2023/10/23 05:40:07;;;;;;;5.80;5.30;;;;;;;9.58;99.14;99727.86;218100;1261;140779;-68
2023/10/23 05:45:13;;;;;;;7.20;5.60;;;;;;;9.61;99.20;99729.79;218478;1258;141886;-69
2023/10/23 05:50:17;;;;;;;6.50;5.30;;;;;;;9.66;99.25;99732.63;217477;1263;139911;-69
2023/10/23 05:55:23;;;;;;;6.10;5.50;;;;;;;9.72;99.36;99738.47;218198;1257;140368;-69
2023/10/23 06:00:27;;;;;;;7.60;5.90;;;;;;;9.82;99.55;99745.09;219146;1258;140841;-69
2023/10/23 06:05:32;;;;;;;5.00;4.30;;;;;;;9.92;99.63;99749.27;218782;1258;141348;-70
2023/10/23 06:10:43;;;;;;;6.90;5.30;;;;;;;10.02;99.45;99752.98;219185;1262;139797;-69
2023/10/23 06:15:48;;;;;;;5.10;4.60;;;;;;;10.11;99.38;99757.73;218972;1258;141403;-69
2023/10/23 06:21:01;;;;;;;6.10;5.50;;;;;;;10.16;99.18;99753.73;219475;1261;140540;-69
2023/10/23 06:26:08;;;;;;;9.70;5.80;;;;;;;10.30;99.52;99761.98;220063;1257;139848;-69
2023/10/23 06:31:13;;;;;;;7.90;6.70;;;;;;;10.46;99.67;99758.81;220188;1257;142017;-70
2023/10/23 06:36:19;;;;;;;6.10;5.50;;;;;;;10.66;99.87;99763.46;218947;1258;139565;-69
2023/10/23 06:41:24;;;;;;;12.00;6.70;;;;;;;10.86;99.71;99760.84;219721;1257;140666;-70
2023/10/23 06:46:29;;;;;;;14.10;9.30;;;;;;;11.23;99.82;99763.26;219014;1257;140279;-69
2023/10/23 06:51:34;;;;;;;14.80;8.10;;;;;;;11.87;99.93;99758.95;218611;1257;140823;-69
2023/10/23 06:56:39;;;;;;;9.50;6.40;;;;;;;12.91;100.00;99766.06;217662;1263;141350;-69
2023/10/23 07:01:44;;;;;;;8.40;6.40;;;;;;;13.66;98.75;99777.04;218550;1257;142969;-69
2023/10/23 07:06:48;;;;;;;6.50;4.60;;;;;;;13.77;96.95;99786.18;217973;1262;140839;-69
2023/10/23 07:11:53;;;;;;;5.50;4.90;;;;;;;13.73;95.94;99788.69;217483;1258;141254;-70
2023/10/23 07:16:58;;;;;;;4.30;3.90;;;;;;;13.58;95.39;99801.17;218136;1257;141188;-69
2023/10/23 07:22:03;;;;;;;7.70;4.20;;;;;;;13.35;94.63;99800.02;217806;1257;140734;-69
2023/10/23 07:27:18;;;;;;;6.60;5.50;;;;;;;13.23;95.34;99806.40;218071;1257;140890;-69
2023/10/23 07:32:21;;;;;;;5.20;4.70;;;;;;;13.22;95.53;99816.34;217577;1258;140333;-69
2023/10/23 07:37:27;;;;;;;9.90;6.20;;;;;;;13.09;95.04;99817.64;217813;1257;140669;-70
2023/10/23 07:42:35;;;;;;;6.60;4.10;;;;;;;13.01;94.94;99825.86;218462;1257;140697;-68
2023/10/23 07:47:39;;;;;;;5.60;4.90;;;;;;;12.94;95.06;99824.69;217645;1257;140062;-68
2023/10/23 07:52:43;;;;;;;8.20;5.30;;;;;;;12.94;95.26;99822.66;218423;1257;139936;-68
2023/10/23 07:57:47;;;;;;;13.10;5.30;;;;;;;13.02;95.45;99825.73;218082;1258;140622;-69
2023/10/23 08:02:52;;;;;;;5.80;5.30;;;;;;;13.11;95.34;99827.39;218103;1257;140286;-68
2023/10/23 08:07:57;;;;;;;6.90;4.40;;;;;;;13.12;94.80;99832.13;218217;1258;139800;-69
2023/10/23 08:13:02;;;;;;;8.20;4.50;;;;;;;13.04;94.39;99840.15;219766;1259;140145;-70
2023/10/23 08:18:06;;;;;;;8.60;5.70;;;;;;;12.99;94.38;99839.64;219737;1260;140253;-70
2023/10/23 08:23:24;;;;;;;5.40;3.70;;;;;;;12.96;94.42;99841.73;219606;1261;140446;-70
2023/10/23 08:28:29;;;;;;;6.60;4.30;;;;;;;12.85;93.76;99839.40;219289;1259;140999;-69
2023/10/23 08:33:53;;;;;;;7.80;4.00;;;;;;;12.70;93.65;99840.22;219544;1260;140040;-69
2023/10/23 08:38:57;;;;;;;8.10;3.50;;;;;;;12.65;94.19;99847.09;218671;1259;140043;-69
2023/10/23 08:44:03;;;;;;;4.80;3.80;;;;;;;12.63;93.84;99854.81;218326;1260;140117;-68
2023/10/23 08:49:08;;;;;;;4.70;4.10;;;;;;;12.59;94.15;99849.61;218035;1259;140175;-69
2023/10/23 08:54:17;;;;;;;6.10;4.10;;;;;;;12.55;94.23;99845.92;219138;1259;140338;-69
2023/10/23 08:59:22;;;;;;;5.50;4.50;;;;;;;12.50;94.18;99845.06;217951;1259;140643;-69
2023/10/23 09:04:29;;;;;;;4.80;3.80;;;;;;;12.50;94.24;99845.70;218536;1259;140335;-69
2023/10/23 09:09:34;;;;;;;9.10;5.00;;;;;;;12.54;94.29;99848.47;217972;1257;140696;-68
2023/10/23 09:14:39;;;;;;;8.10;5.00;;;;;;;12.64;94.71;99849.38;217583;1262;140092;-69
2023/10/23 09:19:44;;;;;;;12.50;3.70;;;;;;;12.71;94.41;99848.96;218708;1257;139639;-69
2023/10/23 09:24:49;;;;;;;5.60;5.10;;;;;;;12.76;94.27;99853.99;217317;1257;140416;-68
2023/10/23 09:30:00;;;;;;;9.30;4.60;;;;;;;12.77;94.51;99853.75;218729;1257;139997;-69
2023/10/23 09:35:07;;;;;;;3.50;3.20;;;;;;;12.98;95.09;99853.75;218331;1261;140362;-69
2023/10/23 09:40:12;;;;;;;15.90;4.70;;;;;;;13.19;94.63;99850.14;218028;1257;140396;-69
2023/10/23 09:45:19;;;;;;;8.50;5.30;;;;;;;13.44;94.96;99843.76;218151;1257;140754;-70
2023/10/23 09:50:26;;;;;;;;;;;;;;;13.75;94.71;99844.04;219298;1257;140564;-70
2023/10/23 09:55:36;;;;;;;7.20;4.50;;;;;;;13.91;94.57;99849.98;218821;1257;126599;-69
2023/10/23 10:00:48;;;;;;;5.70;3.20;;;;;;;14.15;94.03;99841.24;218352;1257;140102;-68
2023/10/23 10:06:03;;;;;;;4.30;2.60;;;;;;;14.26;93.45;99840.48;219206;1257;143131;-69
2023/10/23 10:11:07;;;;;;;3.90;3.00;;;;;;;14.40;93.15;99835.02;219732;1257;140845;-69
2023/10/23 10:16:13;;;;;;;2.80;2.60;;;;;;;14.73;93.14;99826.67;220283;1257;140535;-68
2023/10/23 10:21:22;;;;;;;6.20;3.30;;;;;;;15.15;92.77;99818.02;219442;1257;141460;-70
2023/10/23 10:26:27;;;;;;;3.90;3.30;;;;;;;15.49;91.90;99824.05;218740;1257;140785;-69
2023/10/23 10:31:58;;;;;;;5.90;2.90;;;;;;;15.70;91.34;99821.75;219693;1257;140187;-70
2023/10/23 10:37:06;;;;;;;7.30;3.30;;;;;;;15.70;89.93;99823.42;218026;1262;140224;-69
2023/10/23 10:42:29;;;;;;;3.90;2.50;;;;;;;15.48;89.45;99821.04;219102;1257;141416;-69
2023/10/23 10:47:40;;;;;;;5.50;2.90;;;;;;;15.32;89.39;99817.70;218260;1258;140803;-69
2023/10/23 10:52:46;;;;;;;2.50;2.20;;;;;;;15.29;89.47;99815.12;218236;1257;140354;-69
2023/10/23 10:57:53;;;;;;;3.60;2.70;;;;;;;15.37;89.82;99811.64;218498;1259;140187;-69
2023/10/23 11:02:58;;;;;;;5.80;3.40;;;;;;;15.52;89.59;99810.15;217497;1261;139727;-69
2023/10/23 11:08:04;;;;;;;2.40;2.20;;;;;;;15.64;89.73;99806.73;217511;1259;140586;-70
2023/10/23 11:13:16;;;;;;;3.60;2.70;;;;;;;15.76;89.04;99810.96;218716;1259;141506;-69
2023/10/23 11:18:22;;;;;;;2.10;1.90;;;;;;;15.80;88.43;99808.50;217588;1257;139902;-68
2023/10/23 11:23:32;;;;;;;3.90;3.60;;;;;;;15.69;87.63;99808.52;218013;1257;140358;-69
2023/10/23 11:28:37;;;;;;;4.00;2.60;;;;;;;15.60;87.46;99810.87;217450;1261;140962;-68
2023/10/23 11:33:43;;;;;;;;;;;;;;;15.44;87.33;99809.80;218934;1261;141146;-69
2023/10/23 11:38:48;;;;;;;5.20;2.50;;;;;;;15.41;87.41;99807.20;218692;1257;126488;-70
2023/10/23 11:44:00;;;;;;;4.00;2.80;;;;;;;15.38;87.03;99810.58;218758;1257;140380;-69
2023/10/23 11:49:04;;;;;;;5.00;2.70;;;;;;;15.25;86.86;99808.02;218864;1258;140780;-70
2023/10/23 11:54:08;;;;;;;2.30;2.10;;;;;;;15.21;87.14;99810.21;218757;1258;140268;-70
2023/10/23 11:59:21;;;;;;;4.50;3.40;;;;;;;15.25;87.12;99809.04;219282;1257;139963;-69
2023/10/23 12:04:25;;;;;;;5.50;3.10;;;;;;;15.34;87.01;99809.64;220276;1257;140515;-69
2023/10/23 12:09:30;;;;;;;3.50;2.50;;;;;;;15.29;86.83;99814.58;219474;1259;141728;-70
2023/10/23 12:14:34;;;;;;;3.30;2.30;;;;;;;15.19;86.53;99813.27;219590;1259;140392;-70
2023/10/23 12:19:41;;;;;;;4.80;2.90;;;;;;;15.13;86.75;99815.27;218630;1259;140818;-69
2023/10/23 12:24:45;;;;;;;5.20;2.80;;;;;;;15.08;86.74;99811.44;218610;1259;140332;-70
2023/10/23 12:29:49;;;;;;;3.70;3.00;;;;;;;15.05;86.74;99809.00;218530;1259;141275;-68
2023/10/23 12:34:59;;;;;;;4.90;2.60;;;;;;;15.06;86.72;99811.75;218314;1259;140223;-68
2023/10/23 12:40:08;;;;;;;6.50;3.60;;;;;;;15.09;86.67;99809.52;217814;1260;140094;-68
2023/10/23 12:45:12;;;;;;;3.60;2.70;;;;;;;15.19;86.84;99811.48;218898;1259;140201;-70
2023/10/23 12:50:16;;;;;;;3.90;3.00;;;;;;;15.27;87.06;99812.65;218282;1259;140214;-68
2023/10/23 12:55:21;;;;;;;3.20;2.90;;;;;;;15.29;86.38;99817.54;217423;1259;140142;-69
2023/10/23 13:00:26;;;;;;;3.70;3.40;;;;;;;15.28;86.30;99813.71;217872;1259;140793;-70
2023/10/23 13:05:30;;;;;;;2.60;2.40;;;;;;;15.22;86.04;99812.69;217608;1257;139927;-69
2023/10/23 13:10:34;;;;;;;10.80;3.70;;;;;;;15.16;86.04;99812.50;217885;1258;139750;-69
2023/10/23 13:15:39;;;;;;;4.00;3.60;;;;;;;15.14;86.21;99809.64;218101;1259;141815;-68
2023/10/23 13:20:43;;;;;;;32.50;12.30;;;;;;;15.13;86.19;99809.58;217789;1259;139777;-69
2023/10/23 13:26:07;;;;;;;8.90;4.90;;;;;;;15.07;86.16;99806.60;218026;1262;140462;-69
2023/10/23 13:31:17;;;;;;;3.20;3.00;;;;;;;15.06;86.34;99804.39;218412;1261;140075;-69
2023/10/23 13:36:22;;;;;;;7.20;3.30;;;;;;;15.02;86.23;99800.83;218298;1257;211965;-70
2023/10/23 13:41:27;;;;;;;10.90;6.20;;;;;;;15.00;86.08;99797.61;219432;1258;142504;-71
2023/10/23 13:46:31;;;;;;;7.90;4.90;;;;;;;14.96;86.38;99794.96;219385;1259;141017;-72
2023/10/23 13:51:36;;;;;;;8.70;4.40;;;;;;;15.01;86.52;99792.29;218954;1259;140460;-70
2023/10/23 13:56:39;;;;;;;6.30;4.40;;;;;;;15.06;86.39;99790.75;219808;1258;139821;-70
2023/10/23 14:01:44;;;;;;;10.30;4.50;;;;;;;15.12;86.07;99784.71;220106;1259;140120;-68
2023/10/23 14:06:49;;;;;;;7.30;3.20;;;;;;;15.19;85.68;99791.13;219980;1258;140334;-68
2023/10/23 14:11:53;;;;;;;9.90;2.70;;;;;;;15.25;85.44;99790.09;218544;1259;140433;-70
2023/10/23 14:17:05;;;;;;;2.80;2.70;;;;;;;15.12;84.83;99778.64;218621;1257;669695;-71
2023/10/23 14:22:09;;;;;;;5.30;3.70;;;;;;;14.98;84.69;99772.31;218722;1257;140843;-69
2023/10/23 14:27:13;;;;;;;4.00;2.90;;;;;;;14.99;84.66;99770.16;218355;1259;140222;-68
2023/10/23 14:32:18;;;;;;;6.30;3.80;;;;;;;14.95;84.66;99771.17;218387;1258;140519;-70
2023/10/23 14:37:22;;;;;;;7.90;3.20;;;;;;;14.89;84.83;99769.60;218712;1257;139678;-71
2023/10/23 14:42:26;;;;;;;5.10;3.20;;;;;;;14.74;84.81;99764.75;217891;1259;141053;-71
2023/10/23 14:47:31;;;;;;;3.50;2.80;;;;;;;14.53;84.67;99755.19;218752;1258;140044;-73
2023/10/23 14:52:35;;;;;;;6.20;3.60;;;;;;;14.30;84.63;99755.56;218313;1257;140780;-72
2023/10/23 14:57:39;;;;;;;4.00;3.00;;;;;;;14.10;84.75;99765.98;217837;1259;140362;-68
2023/10/23 15:02:45;;;;;;;4.10;3.30;;;;;;;13.89;84.76;99768.66;218144;1259;139883;-68
2023/10/23 15:07:50;;;;;;;5.20;2.70;;;;;;;13.65;84.70;99772.42;217037;1259;140306;-68
2023/10/23 15:12:55;;;;;;;3.80;3.10;;;;;;;13.43;84.82;99777.34;218104;1260;140895;-71
2023/10/23 15:18:00;;;;;;;4.10;3.40;;;;;;;13.21;84.92;99783.95;217292;1259;140301;-70
2023/10/23 15:23:06;;;;;;;8.20;4.30;;;;;;;13.04;85.22;99794.23;219044;1259;140970;-69
2023/10/23 15:28:11;;;;;;;9.10;3.90;;;;;;;12.88;85.36;99792.14;218428;1259;140111;-70
2023/10/23 15:33:16;;;;;;;5.10;2.90;;;;;;;12.75;85.84;99795.03;218487;1260;140542;-68
2023/10/23 15:38:25;;;;;;;3.90;3.10;;;;;;;12.63;85.63;99792.40;218065;1259;140385;-71
2023/10/23 15:43:31;;;;;;;3.10;2.70;;;;;;;12.49;85.79;99795.27;218846;1259;140023;-70
2023/10/23 15:48:35;;;;;;;3.30;3.10;;;;;;;12.36;86.05;99801.80;218844;1259;140215;-71
2023/10/23 15:53:40;;;;;;;4.40;3.40;;;;;;;12.21;85.96;99804.20;217878;1259;139608;-68
2023/10/23 15:58:45;;;;;;;3.80;3.50;;;;;;;12.04;86.08;99804.55;218363;1259;140569;-69
2023/10/23 16:03:51;;;;;;;4.70;4.30;;;;;;;11.93;87.18;99807.27;218201;1258;140036;-74
2023/10/23 16:08:57;;;;;;;4.00;3.60;;;;;;;11.91;87.50;99807.08;219937;1258;141644;-71
2023/10/23 16:14:24;;;;;;;17.20;9.00;;;;;;;11.91;87.61;99807.35;218668;1259;140008;-71
2023/10/23 16:19:30;;;;;;;20.00;10.50;;;;;;;11.92;87.96;99799.61;218580;1257;140539;-70
2023/10/23 16:24:35;;;;;;;13.80;8.50;;;;;;;11.94;88.42;99804.70;217799;1257;139547;-71
2023/10/23 16:29:40;;;;;;;19.90;9.80;;;;;;;11.89;87.97;99806.93;218534;1259;140446;-68
2023/10/23 16:34:44;;;;;;;20.70;11.20;;;;;;;11.82;88.29;99806.59;218073;1257;140131;-68
2023/10/23 16:39:49;;;;;;;19.90;12.10;;;;;;;11.77;88.60;99803.36;218729;1258;141818;-69
2023/10/23 16:44:54;;;;;;;24.80;15.70;;;;;;;11.77;88.91;99802.92;217892;1261;140288;-68
2023/10/23 16:49:59;;;;;;;19.10;13.50;;;;;;;11.75;89.08;99803.40;218556;1258;140253;-69
2023/10/23 16:55:07;;;;;;;38.80;24.00;;;;;;;11.74;89.21;99799.05;217437;1257;141078;-69
2023/10/23 17:00:15;;;;;;;31.80;19.70;;;;;;;11.72;89.23;99799.43;218538;1257;140353;-72
2023/10/23 17:05:20;;;;;;;39.40;24.40;;;;;;;11.61;89.13;99797.02;217528;1257;140436;-70
2023/10/23 17:10:25;;;;;;;35.60;22.60;;;;;;;11.54;89.31;99792.98;218772;1257;140201;-70
2023/10/23 17:15:29;;;;;;;29.90;22.90;;;;;;;11.49;89.59;99791.24;217482;1261;140964;-70
2023/10/23 17:20:41;;;;;;;49.20;29.10;;;;;;;11.49;90.11;99788.04;217785;1259;140200;-71
2023/10/23 17:25:46;;;;;;;56.00;29.30;;;;;;;11.50;90.20;99785.48;217795;1261;140940;-69
2023/10/23 17:30:55;;;;;;;59.50;32.70;;;;;;;11.45;90.22;99784.33;217878;1262;142782;-69
2023/10/23 17:36:00;;;;;;;62.80;35.70;;;;;;;11.41;90.41;99779.98;220097;1259;141197;-67
2023/10/23 17:41:16;;;;;;;61.90;32.60;;;;;;;11.41;90.46;99776.39;217477;1259;140732;-68
2023/10/23 17:46:20;;;;;;;66.50;35.20;;;;;;;11.35;90.28;99774.30;220113;1258;140388;-69
2023/10/23 17:51:25;;;;;;;65.20;33.00;;;;;;;11.30;90.53;99775.95;219718;1258;142488;-66
2023/10/23 17:56:29;;;;;;;41.30;23.20;;;;;;;11.31;91.04;99772.15;218637;1257;141392;-68
2023/10/23 18:01:36;;;;;;;50.00;29.20;;;;;;;11.33;91.07;99766.54;218390;1258;140753;-68
2023/10/23 18:06:40;;;;;;;47.10;25.60;;;;;;;11.30;91.10;99767.40;218516;1259;140343;-69
2023/10/23 18:11:43;;;;;;;43.50;24.70;;;;;;;11.30;91.13;99772.04;218652;1258;141772;-68
2023/10/23 18:16:47;;;;;;;58.60;27.80;;;;;;;11.23;90.77;99771.21;218723;1258;140784;-74
2023/10/23 18:21:52;;;;;;;49.30;27.90;;;;;;;11.14;90.87;99769.34;218865;1260;142019;-68
2023/10/23 18:26:58;;;;;;;51.50;27.50;;;;;;;11.10;90.89;99769.95;219534;1259;141418;-69
2023/10/23 18:32:03;;;;;;;37.00;22.10;;;;;;;11.08;90.92;99766.86;219056;1259;141354;-71
2023/10/23 18:37:08;;;;;;;30.30;20.40;;;;;;;11.02;90.47;99765.15;218213;1258;142619;-67
2023/10/23 18:42:12;;;;;;;24.90;17.80;;;;;;;10.91;89.92;99763.34;217728;1259;140180;-71
2023/10/23 18:47:16;;;;;;;29.80;18.40;;;;;;;10.75;90.05;99758.25;218357;1259;140603;-71
2023/10/23 18:52:24;;;;;;;31.80;17.30;;;;;;;10.63;89.88;99760.14;218547;1258;140333;-69
2023/10/23 18:57:28;;;;;;;28.90;19.20;;;;;;;10.47;89.45;99761.17;217675;1258;141238;-70
2023/10/23 19:02:35;;;;;;;36.40;18.30;;;;;;;10.36;89.68;99758.12;217720;1258;141373;-72
2023/10/23 19:07:40;;;;;;;34.80;19.40;;;;;;;10.24;89.27;99754.30;217568;1259;140146;-69
2023/10/23 19:12:45;;;;;;;60.90;24.30;;;;;;;9.99;88.73;99753.61;218611;1258;141456;-69
2023/10/23 19:17:50;;;;;;;22.40;18.40;;;;;;;9.82;89.30;99758.58;217966;1261;140231;-69
2023/10/23 19:22:54;;;;;;;76.40;21.40;;;;;;;9.73;89.22;99757.62;218878;1258;141235;-68
2023/10/23 19:27:58;;;;;;;47.80;19.50;;;;;;;9.58;88.76;99764.67;218708;1259;140073;-69
2023/10/23 19:33:04;;;;;;;38.00;21.80;;;;;;;9.39;88.84;99765.16;217186;1262;141205;-69
2023/10/23 19:38:10;;;;;;;65.40;29.00;;;;;;;9.27;88.98;99765.08;219703;1259;140918;-69
2023/10/23 19:43:15;;;;;;;50.00;24.10;;;;;;;9.11;88.80;99767.71;219946;1260;140853;-71
2023/10/23 19:48:19;;;;;;;40.50;17.10;;;;;;;8.98;88.73;99768.92;219908;1262;140367;-70
2023/10/23 19:53:24;;;;;;;20.20;13.80;;;;;;;8.85;88.93;99767.09;219942;1258;140392;-70
2023/10/23 19:58:33;;;;;;;25.20;15.70;;;;;;;8.83;89.52;99763.40;220114;1259;139905;-70
2023/10/23 20:03:38;;;;;;;17.30;13.10;;;;;;;8.80;89.16;99764.33;218510;1260;141109;-69
2023/10/23 20:08:42;;;;;;;37.70;20.60;;;;;;;8.65;88.48;99762.19;218281;1259;140235;-69
2023/10/23 20:13:47;;;;;;;47.70;24.80;;;;;;;8.55;88.77;99758.01;219336;1260;141140;-69
2023/10/23 20:18:52;;;;;;;51.00;26.80;;;;;;;8.45;88.96;99759.42;218471;1260;140366;-68
2023/10/23 20:23:56;;;;;;;41.40;23.60;;;;;;;8.41;89.41;99752.77;218866;1259;140113;-69
2023/10/23 20:29:01;;;;;;;31.80;20.80;;;;;;;8.40;89.44;99751.83;218104;1260;140162;-68
2023/10/23 20:34:05;;;;;;;32.30;19.20;;;;;;;8.35;89.40;99757.88;218344;1257;140365;-68
2023/10/23 20:39:10;;;;;;;38.90;18.90;;;;;;;8.27;89.12;99754.18;217576;1260;140241;-68
2023/10/23 20:44:15;;;;;;;24.20;15.60;;;;;;;8.19;89.03;99754.14;217728;1260;210869;-67
2023/10/23 20:49:20;;;;;;;29.70;19.50;;;;;;;8.04;88.70;99761.14;217553;1261;140161;-66
2023/10/23 20:54:24;;;;;;;24.20;13.40;;;;;;;7.90;88.85;99759.05;217953;1260;140193;-66
2023/10/23 20:59:29;;;;;;;31.10;19.00;;;;;;;7.78;89.35;99755.95;218347;1257;140109;-66
2023/10/23 21:04:33;;;;;;;22.40;15.10;;;;;;;7.77;89.76;99751.43;217940;1260;139971;-66
2023/10/23 21:09:38;;;;;;;37.60;13.00;;;;;;;7.75;89.66;99753.27;218380;1260;140537;-66
2023/10/23 21:14:46;;;;;;;28.00;15.10;;;;;;;7.61;89.41;99750.89;217522;1260;140001;-68
2023/10/23 21:19:50;;;;;;;16.00;11.90;;;;;;;7.55;89.43;99747.80;217279;1257;139940;-67
2023/10/23 21:24:56;;;;;;;22.40;14.50;;;;;;;7.46;89.40;99745.23;218949;1260;141264;-67
2023/10/23 21:30:01;;;;;;;23.70;13.70;;;;;;;7.38;89.77;99744.55;219654;1258;139967;-68
2023/10/23 21:35:05;;;;;;;25.60;14.40;;;;;;;7.31;89.35;99743.48;220228;1257;141636;-68
2023/10/23 21:40:09;;;;;;;19.10;13.20;;;;;;;7.27;89.55;99738.23;220173;1260;141294;-68
2023/10/23 21:45:14;;;;;;;21.20;13.40;;;;;;;7.20;89.16;99740.75;219563;1258;140182;-67
2023/10/23 21:50:18;;;;;;;47.20;16.50;;;;;;;7.13;89.55;99736.98;219291;1257;140435;-67
2023/10/23 21:55:23;;;;;;;21.30;14.30;;;;;;;7.12;89.38;99733.04;220062;1261;140964;-67
2023/10/23 22:00:28;;;;;;;20.20;15.10;;;;;;;7.07;89.64;99731.23;218991;1261;140174;-67
2023/10/23 22:05:33;;;;;;;21.80;12.70;;;;;;;7.04;89.54;99728.16;218140;1262;140094;-68
2023/10/23 22:10:38;;;;;;;36.50;18.50;;;;;;;6.95;89.53;99725.48;217984;1259;139975;-68
2023/10/23 22:15:44;;;;;;;24.10;16.40;;;;;;;6.93;89.94;99718.60;219249;1259;140801;-71
2023/10/23 22:20:48;;;;;;;41.60;13.70;;;;;;;6.94;90.04;99720.54;218720;1258;140679;-69
2023/10/23 22:25:53;;;;;;;28.90;16.30;;;;;;;6.82;89.75;99721.12;218301;1259;140010;-68
2023/10/23 22:31:03;;;;;;;18.50;14.20;;;;;;;6.65;89.31;99718.46;217450;1262;140101;-69
2023/10/23 22:36:08;;;;;;;27.30;18.00;;;;;;;6.54;89.44;99714.70;217381;1262;140711;-68
2023/10/23 22:41:11;;;;;;;25.70;17.90;;;;;;;6.53;90.23;99711.38;217945;1259;139999;-70
2023/10/23 22:46:15;;;;;;;29.80;20.50;;;;;;;6.48;89.99;99710.23;217896;1262;139815;-70
2023/10/23 22:51:19;;;;;;;37.60;20.70;;;;;;;6.47;90.39;99700.34;217885;1259;139837;-70
2023/10/23 22:56:30;;;;;;;25.30;17.20;;;;;;;6.39;89.81;99697.86;217900;1262;140175;-69
2023/10/23 23:01:35;;;;;;;35.30;22.10;;;;;;;6.32;89.97;99695.89;218260;1259;140673;-71
2023/10/23 23:06:41;;;;;;;30.90;24.10;;;;;;;6.28;90.31;99694.30;218102;1262;140140;-69
2023/10/23 23:11:46;;;;;;;32.60;20.40;;;;;;;6.24;90.25;99688.94;217824;1258;140129;-71
2023/10/23 23:16:52;;;;;;;25.70;20.20;;;;;;;6.14;89.87;99685.25;218154;1261;208404;-70
2023/10/23 23:22:07;;;;;;;26.20;19.40;;;;;;;6.08;90.32;99680.60;218670;1261;141798;-70